createdAt,value
2023-05-23T00:04:58.386Z,100.00
2023-05-23T00:10:01.361Z,100.00
2023-05-23T00:15:08.682Z,100.00
2023-05-23T00:20:12.421Z,100.00
2023-05-23T00:25:15.216Z,100.00
2023-05-23T00:30:19.569Z,100.00
2023-05-23T00:35:23.650Z,100.00
2023-05-23T00:40:27.377Z,100.00
2023-05-23T00:45:31.529Z,99.94
2023-05-23T00:50:36.186Z,99.51
2023-05-23T00:55:39.804Z,99.96
2023-05-23T01:00:44.983Z,99.07
2023-05-23T01:05:47.959Z,100.00
2023-05-23T01:10:51.305Z,100.00
2023-05-23T01:16:04.515Z,100.00
2023-05-23T01:21:11.159Z,100.00
2023-05-23T01:26:34.994Z,98.94
2023-05-23T01:31:44.158Z,98.52
2023-05-23T01:36:50.738Z,100.00
2023-05-23T01:41:54.709Z,99.33
2023-05-23T01:46:59.349Z,100.00
2023-05-23T01:52:03.130Z,100.00
2023-05-23T01:57:07.238Z,100.00
2023-05-23T02:02:12.266Z,99.84
2023-05-23T02:07:15.090Z,100.00
2023-05-23T02:12:17.892Z,100.00
2023-05-23T02:17:24.233Z,100.00
2023-05-23T02:22:27.438Z,100.00
2023-05-23T02:27:30.243Z,100.00
2023-05-23T02:32:35.076Z,100.00
2023-05-23T02:37:38.181Z,100.00
2023-05-23T02:42:41.017Z,100.00
2023-05-23T02:47:45.767Z,100.00
2023-05-23T02:52:49.030Z,100.00
2023-05-23T02:57:56.857Z,100.00
2023-05-23T03:03:01.739Z,100.00
2023-05-23T03:08:05.351Z,100.00
2023-05-23T03:13:08.340Z,100.00
2023-05-23T03:18:13.171Z,100.00
2023-05-23T03:23:15.993Z,100.00
2023-05-23T03:28:21.009Z,100.00
2023-05-23T03:33:25.164Z,100.00
2023-05-23T03:38:29.083Z,100.00
2023-05-23T03:43:31.851Z,100.00
2023-05-23T03:48:37.771Z,100.00
2023-05-23T03:53:40.897Z,99.95
2023-05-23T03:58:43.677Z,100.00
2023-05-23T04:03:52.758Z,96.54
2023-05-23T04:08:56.216Z,96.39
2023-05-23T04:13:59.206Z,95.58
2023-05-23T04:19:05.888Z,93.45
2023-05-23T04:24:09.182Z,97.82
2023-05-23T04:29:12.631Z,95.26
2023-05-23T04:34:17.225Z,93.42
2023-05-23T04:39:20.536Z,97.85
2023-05-23T04:44:43.304Z,95.72
2023-05-23T04:49:54.020Z,99.11
2023-05-23T04:54:57.235Z,100.00
2023-05-23T05:00:01.117Z,100.00
2023-05-23T05:05:07.252Z,100.00
2023-05-23T05:10:16.829Z,100.00
2023-05-23T05:15:20.592Z,100.00
2023-05-23T05:20:29.567Z,100.00
2023-05-23T05:25:35.825Z,100.00
2023-05-23T05:30:39.282Z,100.00
2023-05-23T05:35:43.946Z,100.00
2023-05-23T05:40:47.452Z,99.82
2023-05-23T05:45:51.022Z,100.00
2023-05-23T05:50:55.652Z,100.00
2023-05-23T05:55:58.559Z,97.54
2023-05-23T06:01:01.525Z,97.64
2023-05-23T06:06:06.880Z,96.27
2023-05-23T06:11:09.932Z,94.17
2023-05-23T06:16:13.036Z,93.27
2023-05-23T06:21:18.095Z,95.20
2023-05-23T06:26:24.704Z,95.32
2023-05-23T06:31:28.571Z,96.69
2023-05-23T06:36:32.800Z,99.32
2023-05-23T06:41:35.647Z,97.34
2023-05-23T06:46:40.357Z,97.85
2023-05-23T06:51:45.325Z,100.00
2023-05-23T06:56:48.487Z,100.00
2023-05-23T07:01:51.894Z,100.00
2023-05-23T07:06:56.139Z,100.00
2023-05-23T07:11:59.173Z,97.60
2023-05-23T07:17:02.557Z,96.73
2023-05-23T07:22:06.926Z,94.95
2023-05-23T07:27:12.493Z,94.21
2023-05-23T07:32:15.662Z,90.10
2023-05-23T07:37:21.165Z,90.32
2023-05-23T07:42:24.220Z,87.13
2023-05-23T07:47:27.694Z,87.02
2023-05-23T07:52:32.313Z,81.79
2023-05-23T07:57:35.877Z,80.26
2023-05-23T08:07:43.221Z,81.76
2023-05-23T08:12:46.793Z,80.54
2023-05-23T08:17:56.887Z,78.93
2023-05-23T08:23:02.634Z,77.10
2023-05-23T08:28:05.980Z,77.74
2023-05-23T08:33:24.246Z,78.91
2023-05-23T08:38:31.932Z,82.80
2023-05-23T08:43:46.302Z,85.90
2023-05-23T08:48:56.695Z,86.42
2023-05-23T08:54:03.880Z,89.98
2023-05-23T08:59:07.031Z,89.96
2023-05-23T09:04:12.798Z,92.24
2023-05-23T09:09:36.487Z,92.46
2023-05-23T09:14:42.305Z,93.11
2023-05-23T09:19:46.988Z,91.35
2023-05-23T09:24:59.932Z,92.48
2023-05-23T09:30:08.024Z,91.33
2023-05-23T09:35:12.451Z,91.58
2023-05-23T09:40:17.789Z,91.20
2023-05-23T09:45:32.068Z,89.56
2023-05-23T09:50:36.824Z,85.85
2023-05-23T09:55:42.270Z,88.71
2023-05-23T10:00:47.493Z,86.29
2023-05-23T10:05:52.754Z,83.62
2023-05-23T10:11:33.991Z,83.85
2023-05-23T10:16:48.671Z,81.50
2023-05-23T10:21:56.339Z,81.78
2023-05-23T10:26:59.524Z,83.03
2023-05-23T10:32:05.660Z,80.09
2023-05-23T10:37:11.221Z,80.38
2023-05-23T10:42:19.242Z,75.61
2023-05-23T10:47:29.440Z,76.16
2023-05-23T10:52:40.955Z,71.98
2023-05-23T10:57:43.932Z,68.41
2023-05-23T11:03:01.121Z,67.26
2023-05-23T11:08:13.772Z,63.67
2023-05-23T11:13:16.676Z,63.33
2023-05-23T11:18:27.618Z,61.90
2023-05-23T11:23:41.945Z,58.63
2023-05-23T11:28:57.215Z,57.21
2023-05-23T11:34:02.687Z,58.06
2023-05-23T11:39:05.724Z,57.29
2023-05-23T11:44:14.695Z,56.78
2023-05-23T11:49:18.818Z,55.63
2023-05-23T11:54:24.336Z,54.01
2023-05-23T11:59:28.361Z,53.85
2023-05-23T12:04:32.678Z,51.03
2023-05-23T12:09:43.385Z,49.50
2023-05-23T12:14:46.523Z,50.28
2023-05-23T12:19:51.659Z,49.91
2023-05-23T12:24:55.383Z,48.79
2023-05-23T12:30:09.518Z,46.89
2023-05-23T12:35:15.941Z,47.23
2023-05-23T12:40:20.201Z,46.92
2023-05-23T12:45:25.185Z,45.62
2023-05-23T12:50:31.324Z,44.86
2023-05-23T12:55:34.253Z,46.25
2023-05-23T13:00:37.783Z,45.00
2023-05-23T13:05:42.203Z,44.06
2023-05-23T13:10:45.218Z,44.11
2023-05-23T13:15:50.529Z,45.93
2023-05-23T13:20:58.164Z,46.22
2023-05-23T13:26:00.950Z,46.26
2023-05-23T13:31:04.941Z,46.58
2023-05-23T13:36:09.389Z,44.38
2023-05-23T13:41:12.184Z,44.59
2023-05-23T13:46:16.221Z,45.17
2023-05-23T13:51:20.596Z,45.23
2023-05-23T13:56:24.378Z,44.32
2023-05-23T14:01:27.344Z,44.81
2023-05-23T14:06:32.902Z,44.48
2023-05-23T14:11:36.025Z,45.02
2023-05-23T14:16:38.921Z,43.61
2023-05-23T14:21:44.895Z,44.84
2023-05-23T14:26:47.983Z,45.10
2023-05-23T14:31:51.102Z,45.80
2023-05-23T14:36:55.731Z,46.03
2023-05-23T14:41:58.581Z,47.10
2023-05-23T14:47:01.630Z,47.14
2023-05-23T14:52:06.176Z,48.68
2023-05-23T14:57:09.386Z,47.99
2023-05-23T15:02:12.434Z,47.27
2023-05-23T15:07:18.255Z,46.40
2023-05-23T15:12:21.121Z,46.71
2023-05-23T15:17:26.569Z,48.96
2023-05-23T15:22:38.575Z,49.12
2023-05-23T15:27:45.190Z,48.63
2023-05-23T15:32:50.611Z,48.71
2023-05-23T15:37:54.884Z,49.21
2023-05-23T15:42:57.828Z,49.55
2023-05-23T15:48:00.768Z,48.71
2023-05-23T15:53:05.234Z,48.98
2023-05-23T15:58:09.429Z,48.78
2023-05-23T16:03:12.725Z,48.01
2023-05-23T16:08:18.134Z,48.14
2023-05-23T16:13:20.979Z,49.01
2023-05-23T16:18:24.197Z,49.65
2023-05-23T16:23:28.737Z,48.77
2023-05-23T16:28:31.603Z,49.83
2023-05-23T16:33:34.489Z,48.64
2023-05-23T16:38:38.836Z,47.78
2023-05-23T16:43:42.827Z,48.01
2023-05-23T16:48:45.982Z,48.79
2023-05-23T16:53:50.353Z,50.09
2023-05-23T16:58:53.274Z,50.41
2023-05-23T17:03:57.033Z,50.33
2023-05-23T17:09:01.632Z,51.45
2023-05-23T17:14:04.631Z,50.93
2023-05-23T17:19:07.856Z,50.75
2023-05-23T17:24:12.229Z,50.50
2023-05-23T17:29:17.186Z,49.77
2023-05-23T17:34:20.258Z,51.20
2023-05-23T17:39:25.220Z,51.15
2023-05-23T17:44:28.348Z,53.10
2023-05-23T17:49:31.321Z,53.53
2023-05-23T17:55:00.972Z,54.87
2023-05-23T18:00:04.074Z,55.17
2023-05-23T18:05:17.817Z,55.72
2023-05-23T18:10:22.291Z,55.48
2023-05-23T18:15:25.829Z,56.57
2023-05-23T18:20:28.816Z,56.28
2023-05-23T18:25:33.474Z,55.89
2023-05-23T18:30:36.723Z,56.01
2023-05-23T18:35:39.759Z,56.04
2023-05-23T18:40:44.496Z,56.80
2023-05-23T18:45:47.673Z,57.40
2023-05-23T18:50:51.281Z,56.69
2023-05-23T18:55:56.371Z,58.17
2023-05-23T19:01:03.708Z,57.64
2023-05-23T19:06:10.751Z,57.00
2023-05-23T19:12:07.529Z,58.46
2023-05-23T19:17:14.008Z,58.90
2023-05-23T19:22:55.022Z,60.38
2023-05-23T19:34:48.136Z,61.37
2023-05-23T19:39:52.576Z,62.84
2023-05-23T19:44:55.416Z,63.15
2023-05-23T19:49:58.410Z,63.61
2023-05-23T19:55:03.792Z,63.93
2023-05-23T20:00:09.789Z,63.30
2023-05-23T20:05:16.431Z,62.38
2023-05-23T20:10:21.019Z,62.66
2023-05-23T20:15:38.060Z,63.39
2023-05-23T20:20:42.847Z,63.46
2023-05-23T20:25:47.323Z,61.12
2023-05-23T20:30:50.333Z,59.37
2023-05-23T20:35:54.001Z,58.49
2023-05-23T20:41:01.505Z,59.03
2023-05-23T20:46:06.319Z,59.22
2023-05-23T20:51:09.451Z,59.05
2023-05-23T20:56:14.206Z,60.78
2023-05-23T21:01:17.186Z,61.19
2023-05-23T21:06:20.071Z,61.50
2023-05-23T21:11:24.855Z,61.87
2023-05-23T21:16:27.715Z,62.31
2023-05-23T21:21:30.490Z,62.54
2023-05-23T21:26:34.669Z,62.85
2023-05-23T21:31:41.951Z,63.88
2023-05-23T21:36:44.958Z,62.65
2023-05-23T21:41:49.114Z,62.48
2023-05-23T21:46:51.943Z,61.86
2023-05-23T21:51:55.105Z,62.13
2023-05-23T21:56:59.270Z,62.19
2023-05-23T22:02:02.145Z,63.51
2023-05-23T22:07:05.580Z,61.91
2023-05-23T22:12:10.535Z,61.71
2023-05-23T22:17:14.223Z,63.28
2023-05-23T22:22:17.032Z,65.20
2023-05-23T22:27:21.314Z,63.53
2023-05-23T22:32:24.611Z,66.30
2023-05-23T22:37:27.386Z,65.61
2023-05-23T22:42:31.507Z,64.72
2023-05-23T22:47:34.491Z,64.97
2023-05-23T22:52:38.562Z,66.38
2023-05-23T22:57:42.727Z,66.68
2023-05-23T23:02:46.646Z,66.08
2023-05-23T23:07:49.605Z,65.27
2023-05-23T23:12:54.069Z,65.08
2023-05-23T23:17:57.272Z,66.70
2023-05-23T23:23:00.143Z,67.06
2023-05-23T23:28:04.589Z,65.38
2023-05-23T23:33:07.370Z,65.47
2023-05-23T23:38:10.306Z,65.57
2023-05-23T23:43:14.518Z,66.94
2023-05-23T23:48:17.263Z,67.52
2023-05-23T23:53:21.379Z,67.15
2023-05-23T23:58:25.566Z,66.23
